Longville, Minnesota
Current Conditions -  °F | °C
As of 11:16 AM on Thursday 18 Dec 2014 (Local Time) from KXVG Reporting Station
Light Snow Light Snow  
Wind Chill: 11°   Ceiling: 2000
Heat Index: 18°   Visibility: 2mi
Dew Point: 16°   Wind: 5mph
Humidity: 93%   Direction: 150°SSE
Pressure: 30.26"   Gusts: NA
Location:  46.99°N, 94.21°W
Report Text: KXVG 181716Z AUTO 15004KT 2SM -SN OVC020 M08/M09 A3026 RMK AO2
Loading
Personal Weather Stations






























Interactive Weather Map New forecast layout! Learn more

10-Day Weather Forecast

Advertisements
Track Severe Weather on mobile